Time;durP1;ratioP1;P1;durP2;ratioP2;P2;SDS_P1;SDS_P2;PMS_P1;PMS_P2;Temp;Humidity;BMP_temperature;BMP_pressure;BME280_temperature;BME280_humidity;BME280_pressure;Samples;Min_cycle;Max_cycle;Signal;HPM_P1;HPM_P2
2023/06/12 00:01:40;;;;;;;;;;;18.70;99.90;;;;;;5063918;28;19987;-70
2023/06/12 00:04:07;;;;;;;;;;;18.60;99.90;;;;;;5064650;28;19988;-70
2023/06/12 00:06:35;;;;;;;;;;;18.60;99.90;;;;;;5064542;28;19999;-70
2023/06/12 00:09:03;;;;;;;;;;;18.60;99.90;;;;;;5064656;28;19920;-70
2023/06/12 00:11:30;;;;;;;;;;;18.50;99.90;;;;;;5063542;28;19929;-70
2023/06/12 00:13:57;;;;;;;;;;;18.50;99.90;;;;;;5064225;28;19952;-70
2023/06/12 00:16:24;;;;;;;;;;;18.50;99.90;;;;;;5064132;28;19927;-70
2023/06/12 00:18:51;;;;;;;;;;;18.40;99.90;;;;;;5064413;28;19928;-70
2023/06/12 00:21:19;;;;;;;;;;;18.40;99.90;;;;;;5063739;28;19927;-70
2023/06/12 00:23:47;;;;;;;;;;;18.30;99.90;;;;;;5064074;28;19928;-70
2023/06/12 00:26:14;;;;;;;;;;;18.20;99.90;;;;;;5064172;28;19921;-70
2023/06/12 00:28:41;;;;;;;;;;;18.20;99.90;;;;;;5064053;28;19955;-71
2023/06/12 00:31:07;;;;;;;;;;;18.10;99.90;;;;;;5063594;28;19959;-70
2023/06/12 00:33:34;;;;;;;;;;;18.00;99.90;;;;;;5063840;28;20152;-70
2023/06/12 00:36:01;;;;;;;;;;;18.00;99.90;;;;;;5063441;28;19929;-70
2023/06/12 00:38:27;;;;;;;;;;;18.00;99.90;;;;;;5056982;28;19984;-70
2023/06/12 00:40:55;;;;;;;;;;;17.90;99.90;;;;;;5053612;28;19959;-70
2023/06/12 00:43:22;;;;;;;;;;;17.80;99.90;;;;;;5063255;28;20115;-69
2023/06/12 00:45:49;;;;;;;;;;;17.80;99.90;;;;;;5063683;28;19991;-70
2023/06/12 00:48:15;;;;;;;;;;;17.80;99.90;;;;;;5063759;28;19927;-71
2023/06/12 00:50:44;;;;;;;;;;;17.70;99.90;;;;;;5063809;28;19952;-70
2023/06/12 00:53:11;;;;;;;;;;;17.70;99.90;;;;;;5062799;28;19924;-72
2023/06/12 00:55:38;;;;;;;;;;;17.70;99.90;;;;;;5057500;28;19921;-70
2023/06/12 00:58:06;;;;;;;;;;;17.60;99.90;;;;;;5044864;28;19991;-70
2023/06/12 01:00:33;;;;;;;;;;;17.50;99.90;;;;;;5046011;28;19927;-70
2023/06/12 01:03:04;;;;;;;;;;;17.50;99.90;;;;;;5062116;28;20252;-70
2023/06/12 01:05:33;;;;;;;;;;;17.50;99.90;;;;;;5063200;28;19921;-69
2023/06/12 01:08:07;;;;;;;;;;;17.40;99.90;;;;;;5063219;28;20200;-70
2023/06/12 01:10:36;;;;;;;;;;;17.30;99.90;;;;;;5063484;28;19929;-70
2023/06/12 01:13:04;;;;;;;;;;;17.30;99.90;;;;;;5062373;28;19921;-70
2023/06/12 01:15:33;;;;;;;;;;;17.30;99.90;;;;;;5060701;28;19920;-70
2023/06/12 01:17:59;;;;;;;;;;;17.20;99.90;;;;;;5063184;28;19927;-70
2023/06/12 01:20:26;;;;;;;;;;;17.20;99.90;;;;;;5055413;28;19952;-70
2023/06/12 01:22:55;;;;;;;;;;;17.10;99.90;;;;;;5053890;28;19920;-70
2023/06/12 01:25:32;;;;;;;;;;;17.10;99.90;;;;;;5063132;28;19987;-69
2023/06/12 01:28:01;;;;;;;;;;;17.00;99.90;;;;;;5063569;28;19921;-70
2023/06/12 01:30:37;;;;;;;;;;;16.90;99.90;;;;;;5063235;28;19987;-70
2023/06/12 01:33:07;;;;;;;;;;;16.90;99.90;;;;;;5062636;28;19921;-70
2023/06/12 01:35:37;;;;;;;;;;;16.90;99.90;;;;;;5062764;28;19956;-70
2023/06/12 01:38:07;;;;;;;;;;;16.90;99.90;;;;;;5063158;28;19984;-70
2023/06/12 01:40:35;;;;;;;;;;;16.80;99.90;;;;;;5062805;28;20233;-70
2023/06/12 01:43:01;;;;;;;;;;;16.80;99.90;;;;;;5062475;28;19921;-70
2023/06/12 01:45:28;;;;;;;;;;;16.80;99.90;;;;;;5062967;28;19984;-70
2023/06/12 01:47:54;;;;;;;;;;;16.70;99.90;;;;;;5063029;28;19987;-70
2023/06/12 01:50:22;;;;;;;;;;;16.70;99.90;;;;;;5054689;28;19928;-70
2023/06/12 01:52:49;;;;;;;;;;;16.70;99.90;;;;;;5057072;28;20212;-70
2023/06/12 01:55:19;;;;;;;;;;;16.60;99.90;;;;;;5060087;28;19952;-70
2023/06/12 01:57:48;;;;;;;;;;;16.60;99.90;;;;;;5062758;28;19921;-70
2023/06/12 02:00:15;;;;;;;;;;;16.50;99.90;;;;;;5062992;28;19927;-71
2023/06/12 02:02:43;;;;;;;;;;;16.50;99.90;;;;;;5061965;28;20024;-70
2023/06/12 02:05:10;;;;;;;;;;;16.50;99.90;;;;;;5062316;28;19959;-70
2023/06/12 02:07:38;;;;;;;;;;;16.40;99.90;;;;;;5063213;28;19959;-70
2023/06/12 02:10:07;;;;;;;;;;;16.40;99.90;;;;;;5063954;28;19927;-70
2023/06/12 02:12:34;;;;;;;;;;;16.40;99.90;;;;;;5065758;28;19967;-70
2023/06/12 02:15:10;;;;;;;;;;;16.40;99.90;;;;;;5064928;28;20015;-71
2023/06/12 02:17:37;;;;;;;;;;;16.30;99.90;;;;;;5048030;28;19928;-70
2023/06/12 02:20:04;;;;;;;;;;;16.30;99.90;;;;;;5066412;28;19920;-70
2023/06/12 02:22:31;;;;;;;;;;;16.20;99.90;;;;;;5065965;28;19956;-70
2023/06/12 02:24:59;;;;;;;;;;;16.20;99.90;;;;;;5066481;28;19927;-75
2023/06/12 02:27:25;;;;;;;;;;;16.10;99.90;;;;;;5066337;28;20093;-70
2023/06/12 02:29:52;;;;;;;;;;;16.10;99.90;;;;;;5062542;28;19921;-70
2023/06/12 02:32:19;;;;;;;;;;;16.00;99.90;;;;;;5055290;28;19921;-70
2023/06/12 02:34:47;;;;;;;;;;;15.90;99.90;;;;;;5066272;28;20162;-70
2023/06/12 02:37:14;;;;;;;;;;;15.90;99.90;;;;;;5066166;28;20204;-70
2023/06/12 02:39:40;;;;;;;;;;;15.80;99.90;;;;;;5065897;28;20281;-71
2023/06/12 02:42:09;;;;;;;;;;;15.80;99.90;;;;;;5065673;28;19987;-70
2023/06/12 02:44:35;;;;;;;;;;;15.80;99.90;;;;;;5066282;28;20031;-70
2023/06/12 02:47:02;;;;;;;;;;;15.70;99.90;;;;;;5065815;28;19921;-70
2023/06/12 02:49:29;;;;;;;;;;;15.70;99.90;;;;;;5066005;28;19983;-70
2023/06/12 02:51:56;;;;;;;;;;;15.70;99.90;;;;;;5065100;28;19987;-70
2023/06/12 02:54:24;;;;;;;;;;;15.60;99.90;;;;;;5063074;28;19991;-70
2023/06/12 02:56:51;;;;;;;;;;;15.60;99.90;;;;;;5062174;28;20321;-70
2023/06/12 02:59:19;;;;;;;;;;;15.60;99.90;;;;;;5065911;28;20200;-70
2023/06/12 03:01:46;;;;;;;;;;;15.50;99.90;;;;;;5064882;28;20254;-70
2023/06/12 03:04:15;;;;;;;;;;;15.50;99.90;;;;;;5065595;28;20220;-70
2023/06/12 03:06:43;;;;;;;;;;;15.40;99.90;;;;;;5065539;28;19921;-70
2023/06/12 03:09:10;;;;;;;;;;;15.40;99.90;;;;;;5063300;28;19920;-71
2023/06/12 03:11:37;;;;;;;;;;;15.30;99.90;;;;;;5063285;28;19921;-71
2023/06/12 03:14:04;;;;;;;;;;;15.30;99.90;;;;;;5064683;28;20173;-70
2023/06/12 03:16:32;;;;;;;;;;;15.20;99.90;;;;;;5053699;28;19925;-71
2023/06/12 03:18:59;;;;;;;;;;;15.30;99.90;;;;;;5056379;28;21033;-70
2023/06/12 03:21:26;;;;;;;;;;;15.20;99.90;;;;;;5064245;28;20235;-70
2023/06/12 03:23:52;;;;;;;;;;;15.20;99.90;;;;;;5065037;28;19927;-70
2023/06/12 03:26:19;;;;;;;;;;;15.20;99.90;;;;;;5065329;28;20115;-70
2023/06/12 03:28:46;;;;;;;;;;;15.10;99.90;;;;;;5065067;28;19928;-70
2023/06/12 03:31:13;;;;;;;;;;;15.00;99.90;;;;;;5064708;28;19927;-70
2023/06/12 03:33:40;;;;;;;;;;;15.00;99.90;;;;;;5064783;28;19921;-70
2023/06/12 03:36:08;;;;;;;;;;;15.00;99.90;;;;;;5064923;28;19920;-70
2023/06/12 03:38:35;;;;;;;;;;;15.00;99.90;;;;;;5065153;28;19928;-70
2023/06/12 03:41:01;;;;;;;;;;;14.90;99.90;;;;;;5059660;28;20003;-70
2023/06/12 03:43:28;;;;;;;;;;;14.90;99.90;;;;;;5054858;28;19967;-72
2023/06/12 03:45:55;;;;;;;;;;;14.90;99.90;;;;;;5064790;28;20256;-70
2023/06/12 03:48:21;;;;;;;;;;;14.90;99.90;;;;;;5065067;28;19927;-70
2023/06/12 03:50:49;;;;;;;;;;;14.90;99.90;;;;;;5065033;28;20177;-70
2023/06/12 03:53:16;;;;;;;;;;;14.90;99.90;;;;;;5064067;28;19964;-70
2023/06/12 03:55:45;;;;;;;;;;;14.90;99.90;;;;;;5062250;28;19983;-70
2023/06/12 03:58:16;;;;;;;;;;;14.90;99.90;;;;;;5064507;28;19948;-70
2023/06/12 04:00:43;;;;;;;;;;;14.90;99.90;;;;;;5054802;28;19928;-70
2023/06/12 04:03:10;;;;;;;;;;;14.90;99.90;;;;;;5064185;28;19987;-70
2023/06/12 04:05:37;;;;;;;;;;;15.00;99.90;;;;;;5064642;28;19995;-70
2023/06/12 04:08:05;;;;;;;;;;;15.00;99.90;;;;;;5064565;28;19920;-70
2023/06/12 04:10:33;;;;;;;;;;;15.00;99.90;;;;;;5064445;28;19927;-70
2023/06/12 04:13:00;;;;;;;;;;;15.00;99.90;;;;;;5063645;28;19967;-69
2023/06/12 04:15:26;;;;;;;;;;;15.00;99.90;;;;;;5064390;28;20105;-70
2023/06/12 04:17:53;;;;;;;;;;;14.90;99.90;;;;;;5064539;28;19924;-70
2023/06/12 04:20:20;;;;;;;;;;;14.90;99.90;;;;;;5064381;28;19959;-70
2023/06/12 04:22:49;;;;;;;;;;;14.80;99.90;;;;;;5063792;28;19988;-70
2023/06/12 04:25:17;;;;;;;;;;;14.80;99.90;;;;;;5064018;28;19920;-70
2023/06/12 04:27:44;;;;;;;;;;;14.90;99.90;;;;;;5064187;28;20204;-71
2023/06/12 04:30:15;;;;;;;;;;;15.00;99.90;;;;;;5062193;28;20031;-70
2023/06/12 04:32:42;;;;;;;;;;;15.10;99.90;;;;;;5063073;28;19927;-70
2023/06/12 04:35:09;;;;;;;;;;;15.10;99.90;;;;;;5064005;28;19963;-70
2023/06/12 04:37:37;;;;;;;;;;;15.20;99.90;;;;;;5063136;28;20235;-70
2023/06/12 04:40:04;;;;;;;;;;;15.30;99.90;;;;;;5063771;28;19929;-71
2023/06/12 04:42:33;;;;;;;;;;;15.30;99.90;;;;;;5063020;28;19984;-71
2023/06/12 04:45:00;;;;;;;;;;;15.40;99.90;;;;;;5063709;28;19921;-70
2023/06/12 04:47:28;;;;;;;;;;;15.50;99.90;;;;;;5063837;28;19920;-71
2023/06/12 04:49:57;;;;;;;;;;;15.60;99.90;;;;;;5063979;28;19963;-70
2023/06/12 04:52:24;;;;;;;;;;;15.60;99.90;;;;;;5062686;28;20251;-73
2023/06/12 04:54:52;;;;;;;;;;;15.70;99.90;;;;;;5060275;28;19992;-71
2023/06/12 04:57:19;;;;;;;;;;;15.80;99.90;;;;;;5063968;28;20155;-71
2023/06/12 04:59:48;;;;;;;;;;;16.00;99.90;;;;;;5063562;28;19920;-71
2023/06/12 05:02:15;;;;;;;;;;;16.10;99.90;;;;;;5063120;28;20112;-70
2023/06/12 05:04:43;;;;;;;;;;;16.20;99.90;;;;;;5063466;28;20217;-71
2023/06/12 05:07:16;;;;;;;;;;;16.20;99.90;;;;;;5063408;28;19988;-71
2023/06/12 05:09:43;;;;;;;;;;;16.30;99.90;;;;;;5063560;28;19988;-71
2023/06/12 05:12:11;;;;;;;;;;;16.40;99.90;;;;;;5050807;28;19949;-70
2023/06/12 05:14:37;;;;;;;;;;;16.50;99.90;;;;;;5043280;28;19929;-71
2023/06/12 05:17:06;;;;;;;;;;;16.60;99.90;;;;;;5059830;28;19927;-71
2023/06/12 05:19:32;;;;;;;;;;;16.60;99.90;;;;;;5063177;28;19959;-71
2023/06/12 05:21:59;;;;;;;;;;;16.70;99.90;;;;;;5062612;28;19921;-70
2023/06/12 05:24:25;;;;;;;;;;;16.80;99.90;;;;;;5063729;28;20115;-74
2023/06/12 05:26:52;;;;;;;;;;;16.90;99.90;;;;;;5062948;28;20275;-70
2023/06/12 05:29:19;;;;;;;;;;;17.00;99.90;;;;;;5060534;28;19920;-74
2023/06/12 05:31:45;;;;;;;;;;;17.10;99.90;;;;;;5058762;28;19988;-71
2023/06/12 05:34:13;;;;;;;;;;;17.30;99.90;;;;;;5063160;28;19999;-71
2023/06/12 05:36:40;;;;;;;;;;;17.40;99.90;;;;;;5062901;28;19979;-71
2023/06/12 05:39:06;;;;;;;;;;;17.50;99.90;;;;;;5063367;28;20000;-71
2023/06/12 05:41:33;;;;;;;;;;;17.70;99.90;;;;;;5062542;28;19921;-70
2023/06/12 05:44:00;;;;;;;;;;;17.80;99.90;;;;;;5063214;28;19920;-70
2023/06/12 05:46:26;;;;;;;;;;;17.90;99.90;;;;;;5066537;28;19928;-69
2023/06/12 05:48:55;;;;;;;;;;;17.90;99.90;;;;;;5067372;28;19927;-71
2023/06/12 05:51:23;;;;;;;;;;;18.00;99.90;;;;;;5066616;28;19933;-71
2023/06/12 05:53:50;;;;;;;;;;;18.10;99.90;;;;;;5066896;28;20205;-71
2023/06/12 05:56:16;;;;;;;;;;;18.20;99.90;;;;;;5066970;28;19925;-72
2023/06/12 05:58:44;;;;;;;;;;;18.20;99.90;;;;;;5067482;28;19927;-72
2023/06/12 06:01:11;;;;;;;;;;;18.30;99.90;;;;;;5066502;28;19942;-72
2023/06/12 06:03:42;;;;;;;;;;;18.40;99.90;;;;;;5066897;28;19920;-70
2023/06/12 06:06:09;;;;;;;;;;;18.40;99.90;;;;;;5066866;28;19928;-72
2023/06/12 06:08:38;;;;;;;;;;;18.50;99.90;;;;;;5066868;28;19921;-72
2023/06/12 06:11:04;;;;;;;;;;;18.60;99.90;;;;;;5066369;28;19984;-72
2023/06/12 06:13:31;;;;;;;;;;;18.60;99.90;;;;;;5066745;28;19921;-71
2023/06/12 06:15:58;;;;;;;;;;;18.70;99.90;;;;;;5066857;28;20139;-71
2023/06/12 06:18:24;;;;;;;;;;;18.80;99.90;;;;;;5066859;28;19983;-72
2023/06/12 06:20:52;;;;;;;;;;;18.80;99.90;;;;;;5066665;28;19963;-71
2023/06/12 06:23:19;;;;;;;;;;;18.80;99.90;;;;;;5065783;28;19963;-72
2023/06/12 06:25:47;;;;;;;;;;;18.80;99.90;;;;;;5066796;28;19921;-72
2023/06/12 06:28:14;;;;;;;;;;;18.80;99.90;;;;;;5066476;28;19920;-71
2023/06/12 06:30:40;;;;;;;;;;;18.90;99.90;;;;;;5066482;28;19921;-72
2023/06/12 06:33:07;;;;;;;;;;;19.00;99.90;;;;;;5047210;28;19921;-72
2023/06/12 06:35:33;;;;;;;;;;;19.00;99.90;;;;;;5046428;28;19987;-71
2023/06/12 06:38:00;;;;;;;;;;;19.10;99.90;;;;;;5063287;28;20154;-70
2023/06/12 06:40:27;;;;;;;;;;;19.20;99.90;;;;;;5066545;28;19929;-71
2023/06/12 06:42:55;;;;;;;;;;;19.20;99.90;;;;;;5065950;28;19920;-71
2023/06/12 06:45:22;;;;;;;;;;;19.30;99.90;;;;;;5066475;28;19927;-72
2023/06/12 06:47:48;;;;;;;;;;;19.30;99.90;;;;;;5066566;28;20015;-72
2023/06/12 06:50:16;;;;;;;;;;;19.40;99.90;;;;;;5066090;28;19952;-71
2023/06/12 06:52:42;;;;;;;;;;;19.40;99.90;;;;;;5065665;28;19920;-72
2023/06/12 06:55:09;;;;;;;;;;;19.40;99.90;;;;;;5066134;28;19991;-71
2023/06/12 06:57:42;;;;;;;;;;;19.40;99.90;;;;;;5063065;28;19924;-72
2023/06/12 07:00:12;;;;;;;;;;;19.50;99.90;;;;;;5066063;28;19921;-71
2023/06/12 07:02:40;;;;;;;;;;;19.60;99.90;;;;;;5045280;28;19928;-72
2023/06/12 07:05:07;;;;;;;;;;;19.60;99.90;;;;;;5046022;28;19967;-72
2023/06/12 07:07:34;;;;;;;;;;;19.80;99.90;;;;;;5046122;28;19921;-71
2023/06/12 07:10:00;;;;;;;;;;;19.80;99.90;;;;;;5045674;28;20012;-72
2023/06/12 07:12:28;;;;;;;;;;;19.90;99.90;;;;;;5044909;28;19988;-71
2023/06/12 07:15:01;;;;;;;;;;;20.00;99.90;;;;;;5042967;28;20119;-71
2023/06/12 07:17:29;;;;;;;;;;;20.00;99.90;;;;;;5064982;28;19927;-71
2023/06/12 07:19:56;;;;;;;;;;;20.00;99.90;;;;;;5065478;28;19920;-72
2023/06/12 07:22:23;;;;;;;;;;;20.00;99.90;;;;;;5065127;28;19987;-71
2023/06/12 07:24:49;;;;;;;;;;;20.10;99.90;;;;;;5065318;28;20178;-70
2023/06/12 07:27:16;;;;;;;;;;;20.20;99.90;;;;;;5064652;28;19980;-72
2023/06/12 07:29:43;;;;;;;;;;;20.30;99.90;;;;;;5065738;28;19987;-71
2023/06/12 07:32:10;;;;;;;;;;;20.30;99.90;;;;;;5064722;28;19992;-70
2023/06/12 07:34:38;;;;;;;;;;;20.40;99.90;;;;;;5065302;28;19920;-72
2023/06/12 07:37:05;;;;;;;;;;;20.40;99.90;;;;;;5065028;28;19920;-72
2023/06/12 07:39:32;;;;;;;;;;;20.50;99.90;;;;;;5065162;28;19927;-71
2023/06/12 07:41:58;;;;;;;;;;;20.50;99.90;;;;;;5064646;28;19951;-71
2023/06/12 07:44:25;;;;;;;;;;;20.60;99.90;;;;;;5065129;28;19984;-72
2023/06/12 07:46:51;;;;;;;;;;;20.70;99.90;;;;;;5065163;28;19921;-72
2023/06/12 07:49:18;;;;;;;;;;;20.80;99.90;;;;;;5064877;28;19985;-71
2023/06/12 07:51:46;;;;;;;;;;;20.90;99.90;;;;;;5064498;28;19955;-70
2023/06/12 07:54:13;;;;;;;;;;;21.00;99.90;;;;;;5065011;28;20092;-71
2023/06/12 07:56:40;;;;;;;;;;;21.00;99.90;;;;;;5064622;28;19925;-71
2023/06/12 07:59:09;;;;;;;;;;;21.10;99.90;;;;;;5056465;28;20252;-71
2023/06/12 08:01:36;;;;;;;;;;;21.20;99.90;;;;;;5044028;28;20212;-71
2023/06/12 08:04:03;;;;;;;;;;;21.30;99.90;;;;;;5045089;28;19921;-71
2023/06/12 08:06:35;;;;;;;;;;;21.30;99.90;;;;;;5044628;28;20209;-71
2023/06/12 08:09:03;;;;;;;;;;;21.30;99.90;;;;;;5044153;28;19928;-72
2023/06/12 08:11:30;;;;;;;;;;;21.30;99.90;;;;;;5050474;28;19943;-72
2023/06/12 08:13:57;;;;;;;;;;;21.30;99.90;;;;;;5064472;28;19927;-71
2023/06/12 08:16:24;;;;;;;;;;;21.40;99.90;;;;;;5064494;28;19983;-71
2023/06/12 08:18:50;;;;;;;;;;;21.50;99.90;;;;;;5064893;28;19925;-70
2023/06/12 08:21:17;;;;;;;;;;;21.60;99.90;;;;;;5063756;28;19987;-71
2023/06/12 08:23:43;;;;;;;;;;;21.80;99.90;;;;;;5064556;28;19920;-71
2023/06/12 08:26:21;;;;;;;;;;;21.80;99.90;;;;;;5063521;28;20177;-71
2023/06/12 08:28:49;;;;;;;;;;;21.90;99.90;;;;;;5064400;28;19956;-71
2023/06/12 08:31:16;;;;;;;;;;;21.90;99.90;;;;;;5063682;28;19921;-71
2023/06/12 08:33:43;;;;;;;;;;;22.00;99.90;;;;;;5064396;28;19921;-71
2023/06/12 08:36:10;;;;;;;;;;;22.00;99.90;;;;;;5063918;28;19983;-72
2023/06/12 08:38:37;;;;;;;;;;;22.10;99.90;;;;;;5064210;28;20117;-71
2023/06/12 08:41:04;;;;;;;;;;;22.10;99.90;;;;;;5063620;28;19920;-71
2023/06/12 08:43:33;;;;;;;;;;;22.20;99.90;;;;;;5064029;28;19963;-71
2023/06/12 08:46:02;;;;;;;;;;;22.20;99.90;;;;;;5063997;28;20116;-71
2023/06/12 08:48:29;;;;;;;;;;;22.30;99.90;;;;;;5064150;28;19963;-72
2023/06/12 08:50:56;;;;;;;;;;;22.30;99.90;;;;;;5063532;28;20208;-72
2023/06/12 08:53:23;;;;;;;;;;;22.50;99.90;;;;;;5063040;28;19927;-71
2023/06/12 08:55:50;;;;;;;;;;;22.60;99.90;;;;;;5063889;28;19921;-71
2023/06/12 08:58:17;;;;;;;;;;;22.70;99.90;;;;;;5063632;28;19963;-71
2023/06/12 09:00:45;;;;;;;;;;;22.70;99.90;;;;;;5059430;28;19952;-71
2023/06/12 09:03:12;;;;;;;;;;;22.80;99.90;;;;;;5062877;28;20258;-71
2023/06/12 09:05:46;;;;;;;;;;;22.80;99.90;;;;;;5061022;28;19924;-71
2023/06/12 09:08:13;;;;;;;;;;;22.80;99.90;;;;;;5063607;28;19928;-71
2023/06/12 09:10:40;;;;;;;;;;;22.80;99.90;;;;;;5061250;28;19921;-71
2023/06/12 09:13:07;;;;;;;;;;;22.70;99.90;;;;;;5062947;28;19920;-71
2023/06/12 09:15:34;;;;;;;;;;;22.80;99.90;;;;;;5060203;28;19925;-71
2023/06/12 09:18:02;;;;;;;;;;;22.70;99.90;;;;;;5061429;28;19984;-71
2023/06/12 09:20:42;;;;;;;;;;;;;;;;;;;;;
2023/06/12 09:23:11;;;;;;;;;;;22.50;99.90;;;;;;5030046;22;19960;-71
2023/06/12 09:25:40;;;;;;;;;;;22.50;99.90;;;;;;5062329;28;20138;-71
2023/06/12 09:28:09;;;;;;;;;;;22.50;99.90;;;;;;5063452;28;19952;-72
2023/06/12 09:30:38;;;;;;;;;;;22.70;99.90;;;;;;5063496;28;19936;-71
2023/06/12 09:33:07;;;;;;;;;;;22.90;99.90;;;;;;5077781;28;19927;-71
2023/06/12 09:35:34;;;;;;;;;;;23.10;99.90;;;;;;5083512;28;19920;-71
2023/06/12 09:38:01;;;;;;;;;;;23.30;99.90;;;;;;5072729;28;19920;-72
2023/06/12 09:40:27;;;;;;;;;;;23.40;99.90;;;;;;5052439;28;19921;-72
2023/06/12 09:42:54;;;;;;;;;;;23.50;99.90;;;;;;5061951;28;19927;-72
2023/06/12 09:45:23;;;;;;;;;;;23.70;99.90;;;;;;5063946;28;20227;-71
2023/06/12 09:48:00;;;;;;;;;;;23.80;99.90;;;;;;5062195;28;20258;-72
2023/06/12 09:50:29;;;;;;;;;;;23.90;99.90;;;;;;5064897;28;19921;-72
2023/06/12 09:55:45;;;;;;;;;;;24.10;99.90;;;;;;5041298;28;20250;-72
2023/06/12 09:58:13;;;;;;;;;;;24.20;99.90;;;;;;5062899;28;19920;-71
2023/06/12 10:00:40;;;;;;;;;;;24.30;99.90;;;;;;5061925;28;19921;-72
2023/06/12 10:14:18;;;;;;;;;;;24.40;99.50;;;;;;5037946;28;19921;-69
2023/06/12 10:16:47;;;;;;;;;;;24.40;99.70;;;;;;5042343;28;19928;-68
2023/06/12 10:19:14;;;;;;;;;;;24.50;99.70;;;;;;5043101;28;19929;-69
2023/06/12 10:21:42;;;;;;;;;;;24.60;98.80;;;;;;5041183;28;19921;-68
2023/06/12 10:24:09;;;;;;;;;;;24.60;98.00;;;;;;5034294;28;19921;-69
2023/06/12 10:26:37;;;;;;;;;;;24.50;98.70;;;;;;5039459;28;19949;-69
2023/06/12 10:29:19;;;;;;;;;;;24.60;98.60;;;;;;5042402;28;19921;-69
2023/06/12 10:31:47;;;;;;;;;;;24.60;96.20;;;;;;5042526;28;19996;-68
2023/06/12 10:34:15;;;;;;;;;;;24.70;94.90;;;;;;5046041;28;19921;-68
2023/06/12 10:36:42;;;;;;;;;;;24.70;96.20;;;;;;5045954;28;19996;-68
2023/06/12 10:39:17;;;;;;;;;;;24.80;96.90;;;;;;5046067;28;19952;-69
2023/06/12 10:41:56;;;;;;;;;;;24.80;97.20;;;;;;5045698;28;20381;-69
2023/06/12 10:44:39;;;;;;;;;;;24.90;96.60;;;;;;5046102;28;19988;-69
2023/06/12 10:47:16;;;;;;;;;;;25.00;96.40;;;;;;5038638;28;19921;-69
2023/06/12 10:49:54;;;;;;;;;;;25.10;96.30;;;;;;5045022;28;19962;-69
2023/06/12 10:52:21;;;;;;;;;;;25.10;96.20;;;;;;5044023;28;19921;-68
2023/06/12 10:54:49;;;;;;;;;;;25.10;95.40;;;;;;5045192;28;19959;-68
2023/06/12 10:57:16;;;;;;;;;;;24.90;95.70;;;;;;5045967;28;19980;-69
2023/06/12 10:59:45;;;;;;;;;;;24.80;96.60;;;;;;5051072;28;19927;-69
2023/06/12 11:02:14;;;;;;;;;;;24.80;94.90;;;;;;5041489;28;19928;-69
2023/06/12 11:04:41;;;;;;;;;;;24.90;95.00;;;;;;5041940;28;19928;-69
2023/06/12 11:07:07;;;;;;;;;;;25.20;95.60;;;;;;5041935;28;19997;-69
2023/06/12 11:09:39;;;;;;;;;;;25.40;94.60;;;;;;5026018;28;19922;-69
2023/06/12 11:12:06;;;;;;;;;;;25.60;94.20;;;;;;5032098;28;20176;-69
2023/06/12 11:14:33;;;;;;;;;;;25.80;93.80;;;;;;5045364;28;20089;-68
2023/06/12 11:17:00;;;;;;;;;;;25.70;93.40;;;;;;5045343;28;19984;-69
2023/06/12 11:19:28;;;;;;;;;;;25.70;93.90;;;;;;5045682;28;19927;-69
2023/06/12 11:21:55;;;;;;;;;;;25.80;94.90;;;;;;5044956;28;19964;-70
2023/06/12 11:24:22;;;;;;;;;;;25.80;92.80;;;;;;5040215;28;19921;-72
2023/06/12 11:26:49;;;;;;;;;;;25.80;93.10;;;;;;5044494;28;19956;-71
2023/06/12 11:29:17;;;;;;;;;;;25.80;93.10;;;;;;5045518;28;19929;-77
2023/06/12 11:31:47;;;;;;;;;;;25.90;93.10;;;;;;5039064;28;19921;-68
2023/06/12 11:34:13;;;;;;;;;;;25.90;93.10;;;;;;5025388;28;19921;-68
2023/06/12 11:36:41;;;;;;;;;;;25.80;93.10;;;;;;5025340;28;19921;-68
2023/06/12 11:39:17;;;;;;;;;;;25.80;93.00;;;;;;5024057;28;19928;-69
2023/06/12 11:41:43;;;;;;;;;;;25.90;93.10;;;;;;5042487;28;19928;-67
2023/06/12 11:44:10;;;;;;;;;;;26.10;92.70;;;;;;5045041;28;19983;-68
2023/06/12 11:46:36;;;;;;;;;;;26.00;92.10;;;;;;5044785;28;19928;-68
2023/06/12 11:49:05;;;;;;;;;;;26.10;92.50;;;;;;5044167;28;19921;-68
2023/06/12 11:51:32;;;;;;;;;;;26.20;92.20;;;;;;5044720;28;20228;-68
2023/06/12 11:54:00;;;;;;;;;;;26.20;92.20;;;;;;5044543;28;19921;-68
2023/06/12 11:56:29;;;;;;;;;;;26.30;92.20;;;;;;5044463;28;19921;-68
2023/06/12 11:58:56;;;;;;;;;;;26.40;90.80;;;;;;5043011;28;19921;-68
2023/06/12 12:01:22;;;;;;;;;;;26.40;90.10;;;;;;5042607;28;19980;-68
2023/06/12 12:03:49;;;;;;;;;;;26.40;91.00;;;;;;5044172;28;19952;-68
2023/06/12 12:06:16;;;;;;;;;;;26.50;89.90;;;;;;5044197;28;20124;-68
2023/06/12 12:08:43;;;;;;;;;;;26.60;88.70;;;;;;5026482;28;19929;-67
2023/06/12 12:11:17;;;;;;;;;;;26.60;88.90;;;;;;5036213;28;19921;-68
2023/06/12 12:13:50;;;;;;;;;;;26.70;88.60;;;;;;5037143;28;19981;-67
2023/06/12 12:19:18;;;;;;;;;;;27.10;89.50;;;;;;5041354;28;20103;-68
2023/06/12 12:21:46;;;;;;;;;;;27.50;88.60;;;;;;5042414;28;19921;-68
2023/06/12 12:24:13;;;;;;;;;;;27.60;87.90;;;;;;5043161;28;19937;-66
2023/06/12 12:26:42;;;;;;;;;;;27.70;84.90;;;;;;5044173;28;19921;-68
2023/06/12 12:29:09;;;;;;;;;;;27.70;84.90;;;;;;5050185;28;19921;-68
2023/06/12 12:31:36;;;;;;;;;;;27.80;82.60;;;;;;5062786;28;19920;-68
2023/06/12 12:34:03;;;;;;;;;;;27.80;81.90;;;;;;5038809;28;19933;-68
2023/06/12 12:36:30;;;;;;;;;;;27.90;81.80;;;;;;5043490;28;19988;-68
2023/06/12 12:38:56;;;;;;;;;;;27.80;80.90;;;;;;5043867;28;20161;-68
2023/06/12 12:41:26;;;;;;;;;;;27.60;79.60;;;;;;5042397;28;20398;-69
2023/06/12 12:43:54;;;;;;;;;;;27.60;79.40;;;;;;5024918;28;19921;-68
2023/06/12 12:46:21;;;;;;;;;;;27.50;81.60;;;;;;5024169;28;19980;-68
2023/06/12 12:48:48;;;;;;;;;;;27.50;81.80;;;;;;5024210;28;20160;-68
2023/06/12 12:51:14;;;;;;;;;;;27.60;80.40;;;;;;5023623;28;20000;-68
2023/06/12 12:53:41;;;;;;;;;;;27.80;80.40;;;;;;5023304;28;20227;-68
2023/06/12 12:56:08;;;;;;;;;;;28.10;79.80;;;;;;5023670;28;19929;-69
2023/06/12 12:58:35;;;;;;;;;;;28.40;78.40;;;;;;5024039;28;19922;-68
2023/06/12 13:01:04;;;;;;;;;;;28.60;74.70;;;;;;5023428;28;20124;-69
2023/06/12 13:03:33;;;;;;;;;;;28.70;75.70;;;;;;5023939;28;19921;-68
2023/06/12 13:06:00;;;;;;;;;;;28.80;69.40;;;;;;5023805;28;19993;-67
2023/06/12 13:08:26;;;;;;;;;;;28.80;70.20;;;;;;5023761;28;20085;-69
2023/06/12 13:10:53;;;;;;;;;;;28.90;71.10;;;;;;5023381;28;19984;-69
2023/06/12 13:13:19;;;;;;;;;;;29.00;73.00;;;;;;5031151;28;20108;-69
2023/06/12 13:15:47;;;;;;;;;;;29.20;72.00;;;;;;5042446;28;19988;-68
2023/06/12 13:18:15;;;;;;;;;;;28.90;70.00;;;;;;5043745;28;19921;-71
2023/06/12 13:20:42;;;;;;;;;;;28.80;71.10;;;;;;5042317;28;20171;-67
2023/06/12 13:23:09;;;;;;;;;;;28.90;72.60;;;;;;5043148;28;19921;-68
2023/06/12 13:25:38;;;;;;;;;;;29.10;73.10;;;;;;5043135;28;19998;-69
2023/06/12 13:28:05;;;;;;;;;;;29.20;72.00;;;;;;5043225;28;20243;-68
2023/06/12 13:30:31;;;;;;;;;;;29.10;71.60;;;;;;5043001;28;19921;-69
2023/06/12 13:32:58;;;;;;;;;;;29.00;70.90;;;;;;5043424;28;19921;-69
2023/06/12 13:35:26;;;;;;;;;;;29.00;71.80;;;;;;5043306;28;20217;-67
2023/06/12 13:37:54;;;;;;;;;;;29.20;71.60;;;;;;5043241;28;19921;-67
2023/06/12 13:40:22;;;;;;;;;;;29.20;70.70;;;;;;5042933;28;19975;-68
2023/06/12 13:42:49;;;;;;;;;;;29.30;69.60;;;;;;5043275;28;19927;-68
2023/06/12 13:45:16;;;;;;;;;;;29.00;66.80;;;;;;5042244;28;19935;-68
2023/06/12 13:47:45;;;;;;;;;;;28.90;68.70;;;;;;5026183;28;19964;-69
2023/06/12 13:50:12;;;;;;;;;;;29.00;66.30;;;;;;5028903;28;19921;-69
2023/06/12 13:52:40;;;;;;;;;;;29.10;67.80;;;;;;5042722;28;19935;-67
2023/06/12 13:55:07;;;;;;;;;;;29.20;66.50;;;;;;5043297;28;19925;-71
2023/06/12 13:57:34;;;;;;;;;;;29.10;66.10;;;;;;5043112;28;19921;-70
2023/06/12 14:00:00;;;;;;;;;;;29.10;67.40;;;;;;5043139;28;19988;-70
2023/06/12 14:02:27;;;;;;;;;;;29.30;69.70;;;;;;5043144;28;19921;-71
2023/06/12 14:04:53;;;;;;;;;;;29.30;69.20;;;;;;5043304;28;19921;-71
2023/06/12 14:07:20;;;;;;;;;;;29.30;68.90;;;;;;5045971;28;20226;-70
2023/06/12 14:09:48;;;;;;;;;;;29.40;69.70;;;;;;5047164;28;19956;-71
2023/06/12 14:12:15;;;;;;;;;;;29.70;67.40;;;;;;5046832;28;19995;-71
2023/06/12 14:14:45;;;;;;;;;;;30.00;66.60;;;;;;5046532;28;20292;-70
2023/06/12 14:17:14;;;;;;;;;;;30.40;68.20;;;;;;5046681;28;20235;-71
2023/06/12 14:19:41;;;;;;;;;;;30.80;70.10;;;;;;5046515;28;19921;-71
2023/06/12 14:22:08;;;;;;;;;;;31.00;69.00;;;;;;5046470;28;19928;-71
2023/06/12 14:24:34;;;;;;;;;;;31.20;68.20;;;;;;5046801;28;19928;-71
2023/06/12 14:27:02;;;;;;;;;;;31.00;67.70;;;;;;5046561;28;20280;-71
2023/06/12 14:29:29;;;;;;;;;;;30.40;67.10;;;;;;5046465;28;19921;-71
2023/06/12 14:31:56;;;;;;;;;;;29.80;68.60;;;;;;5046409;28;19921;-71
2023/06/12 14:34:22;;;;;;;;;;;29.10;70.10;;;;;;5046685;28;19987;-70
2023/06/12 14:36:49;;;;;;;;;;;28.70;71.30;;;;;;5046202;28;19921;-71
2023/06/12 14:39:16;;;;;;;;;;;28.70;70.80;;;;;;5029088;28;19921;-71